sensor_id;sensor_type;location;lat;lon;timestamp;pressure;altitude;pressure_sealevel;temperature;humidity
19789;BME280;10054;59.332;18.244;2023-04-06T00:00:38;102026.70;;;-1.76;100.00
19789;BME280;10054;59.332;18.244;2023-04-06T00:03:07;102026.69;;;-1.78;100.00
19789;BME280;10054;59.332;18.244;2023-04-06T00:05:36;102028.80;;;-1.82;100.00
19789;BME280;10054;59.332;18.244;2023-04-06T00:10:54;102031.71;;;-1.91;100.00
19789;BME280;10054;59.332;18.244;2023-04-06T00:13:23;102029.95;;;-1.94;100.00
19789;BME280;10054;59.332;18.244;2023-04-06T00:15:53;102032.52;;;-1.97;100.00
19789;BME280;10054;59.332;18.244;2023-04-06T00:18:22;102036.78;;;-2.01;100.00
19789;BME280;10054;59.332;18.244;2023-04-06T00:20:51;102035.45;;;-2.04;100.00
19789;BME280;10054;59.332;18.244;2023-04-06T00:23:19;102036.30;;;-2.05;100.00
19789;BME280;10054;59.332;18.244;2023-04-06T00:25:48;102034.52;;;-2.10;100.00
19789;BME280;10054;59.332;18.244;2023-04-06T00:28:18;102037.92;;;-2.13;100.00
19789;BME280;10054;59.332;18.244;2023-04-06T00:30:50;102040.06;;;-2.14;100.00
19789;BME280;10054;59.332;18.244;2023-04-06T00:33:20;102039.16;;;-2.17;100.00
19789;BME280;10054;59.332;18.244;2023-04-06T00:35:49;102042.58;;;-2.20;100.00
19789;BME280;10054;59.332;18.244;2023-04-06T00:38:19;102040.82;;;-2.22;100.00
19789;BME280;10054;59.332;18.244;2023-04-06T00:40:48;102036.05;;;-2.27;100.00
19789;BME280;10054;59.332;18.244;2023-04-06T00:43:17;102038.59;;;-2.30;100.00
19789;BME280;10054;59.332;18.244;2023-04-06T00:45:46;102035.53;;;-2.35;100.00
19789;BME280;10054;59.332;18.244;2023-04-06T00:48:15;102034.59;;;-2.40;100.00
19789;BME280;10054;59.332;18.244;2023-04-06T00:50:45;102042.73;;;-2.43;100.00
19789;BME280;10054;59.332;18.244;2023-04-06T00:56:02;102037.61;;;-2.40;100.00
19789;BME280;10054;59.332;18.244;2023-04-06T00:58:34;102039.44;;;-2.32;100.00
19789;BME280;10054;59.332;18.244;2023-04-06T01:01:06;102039.41;;;-2.35;100.00
19789;BME280;10054;59.332;18.244;2023-04-06T01:03:35;102039.34;;;-2.39;100.00
19789;BME280;10054;59.332;18.244;2023-04-06T01:06:05;102038.39;;;-2.46;100.00
19789;BME280;10054;59.332;18.244;2023-04-06T01:08:36;102040.51;;;-2.48;100.00
19789;BME280;10054;59.332;18.244;2023-04-06T01:11:13;102043.92;;;-2.51;100.00
19789;BME280;10054;59.332;18.244;2023-04-06T01:13:42;102045.14;;;-2.55;100.00
19789;BME280;10054;59.332;18.244;2023-04-06T01:16:18;102040.36;;;-2.59;100.00
19789;BME280;10054;59.332;18.244;2023-04-06T01:18:49;102037.75;;;-2.60;100.00
19789;BME280;10054;59.332;18.244;2023-04-06T01:21:19;102039.89;;;-2.61;100.00
19789;BME280;10054;59.332;18.244;2023-04-06T01:23:50;102038.56;;;-2.65;100.00
19789;BME280;10054;59.332;18.244;2023-04-06T01:26:21;102041.98;;;-2.66;100.00
19789;BME280;10054;59.332;18.244;2023-04-06T01:28:51;102045.02;;;-2.65;100.00
19789;BME280;10054;59.332;18.244;2023-04-06T01:31:28;102037.67;;;-2.67;100.00
19789;BME280;10054;59.332;18.244;2023-04-06T01:33:57;102039.41;;;-2.66;100.00
19789;BME280;10054;59.332;18.244;2023-04-06T01:36:26;102046.27;;;-2.68;100.00
19789;BME280;10054;59.332;18.244;2023-04-06T01:38:58;102039.34;;;-2.70;100.00
19789;BME280;10054;59.332;18.244;2023-04-06T01:41:29;102044.05;;;-2.71;100.00
19789;BME280;10054;59.332;18.244;2023-04-06T01:43:58;102040.16;;;-2.73;100.00
19789;BME280;10054;59.332;18.244;2023-04-06T01:46:28;102046.20;;;-2.72;100.00
19789;BME280;10054;59.332;18.244;2023-04-06T01:48:59;102043.59;;;-2.74;100.00
19789;BME280;10054;59.332;18.244;2023-04-06T01:51:29;102046.17;;;-2.74;100.00
19789;BME280;10054;59.332;18.244;2023-04-06T01:54:00;102047.48;;;-2.72;100.00
19789;BME280;10054;59.332;18.244;2023-04-06T01:56:31;102044.46;;;-2.73;100.00
19789;BME280;10054;59.332;18.244;2023-04-06T01:59:07;102046.17;;;-2.74;100.00
19789;BME280;10054;59.332;18.244;2023-04-06T02:01:37;102045.30;;;-2.74;100.00
19789;BME280;10054;59.332;18.244;2023-04-06T02:04:06;102043.59;;;-2.74;100.00
19789;BME280;10054;59.332;18.244;2023-04-06T02:06:35;102051.34;;;-2.74;100.00
19789;BME280;10054;59.332;18.244;2023-04-06T02:09:05;102047.95;;;-2.70;100.00
19789;BME280;10054;59.332;18.244;2023-04-06T02:11:34;102052.34;;;-2.64;100.00
19789;BME280;10054;59.332;18.244;2023-04-06T02:14:03;102047.69;;;-2.58;100.00
19789;BME280;10054;59.332;18.244;2023-04-06T02:16:33;102050.37;;;-2.51;100.00
19789;BME280;10054;59.332;18.244;2023-04-06T02:19:02;102052.60;;;-2.46;100.00
19789;BME280;10054;59.332;18.244;2023-04-06T02:21:31;102057.41;;;-2.41;100.00
19789;BME280;10054;59.332;18.244;2023-04-06T02:24:00;102054.42;;;-2.39;100.00
19789;BME280;10054;59.332;18.244;2023-04-06T02:26:29;102056.63;;;-2.35;100.00
19789;BME280;10054;59.332;18.244;2023-04-06T02:28:58;102063.16;;;-2.29;100.00
19789;BME280;10054;59.332;18.244;2023-04-06T02:31:28;102052.06;;;-2.19;100.00
19789;BME280;10054;59.332;18.244;2023-04-06T02:33:57;102050.92;;;-2.07;100.00
19789;BME280;10054;59.332;18.244;2023-04-06T02:36:27;102054.03;;;-2.00;100.00
19789;BME280;10054;59.332;18.244;2023-04-06T02:38:55;102054.94;;;-1.96;100.00
19789;BME280;10054;59.332;18.244;2023-04-06T02:41:24;102053.23;;;-1.94;100.00
19789;BME280;10054;59.332;18.244;2023-04-06T02:43:55;102055.41;;;-1.92;100.00
19789;BME280;10054;59.332;18.244;2023-04-06T02:46:25;102051.11;;;-1.91;100.00
19789;BME280;10054;59.332;18.244;2023-04-06T02:48:54;102054.14;;;-1.90;100.00
19789;BME280;10054;59.332;18.244;2023-04-06T02:51:24;102052.00;;;-1.89;100.00
19789;BME280;10054;59.332;18.244;2023-04-06T02:53:55;102052.44;;;-1.88;100.00
19789;BME280;10054;59.332;18.244;2023-04-06T02:56:24;102057.66;;;-1.84;100.00
19789;BME280;10054;59.332;18.244;2023-04-06T02:58:54;102058.13;;;-1.81;100.00
19789;BME280;10054;59.332;18.244;2023-04-06T03:01:23;102049.14;;;-1.75;100.00
19789;BME280;10054;59.332;18.244;2023-04-06T03:03:54;102053.52;;;-1.70;100.00
19789;BME280;10054;59.332;18.244;2023-04-06T03:06:26;102058.77;;;-1.62;100.00
19789;BME280;10054;59.332;18.244;2023-04-06T03:08:57;102054.52;;;-1.55;100.00
19789;BME280;10054;59.332;18.244;2023-04-06T03:11:25;102058.86;;;-1.53;100.00
19789;BME280;10054;59.332;18.244;2023-04-06T03:13:57;102059.76;;;-1.49;100.00
19789;BME280;10054;59.332;18.244;2023-04-06T03:16:27;102061.92;;;-1.49;100.00
19789;BME280;10054;59.332;18.244;2023-04-06T03:18:57;102064.51;;;-1.46;100.00
19789;BME280;10054;59.332;18.244;2023-04-06T03:21:26;102060.67;;;-1.41;100.00
19789;BME280;10054;59.332;18.244;2023-04-06T03:23:55;102062.88;;;-1.36;100.00
19789;BME280;10054;59.332;18.244;2023-04-06T03:26:24;102061.63;;;-1.32;100.00
19789;BME280;10054;59.332;18.244;2023-04-06T03:28:53;102064.26;;;-1.27;100.00
19789;BME280;10054;59.332;18.244;2023-04-06T03:31:23;102061.27;;;-1.23;100.00
19789;BME280;10054;59.332;18.244;2023-04-06T03:33:54;102066.46;;;-1.22;100.00
19789;BME280;10054;59.332;18.244;2023-04-06T03:36:24;102069.93;;;-1.20;100.00
19789;BME280;10054;59.332;18.244;2023-04-06T03:38:55;102069.50;;;-1.19;100.00
19789;BME280;10054;59.332;18.244;2023-04-06T03:41:25;102072.12;;;-1.16;100.00
19789;BME280;10054;59.332;18.244;2023-04-06T03:43:55;102081.21;;;-1.13;100.00
19789;BME280;10054;59.332;18.244;2023-04-06T03:46:24;102075.61;;;-1.13;100.00
19789;BME280;10054;59.332;18.244;2023-04-06T03:48:55;102081.23;;;-1.12;100.00
19789;BME280;10054;59.332;18.244;2023-04-06T03:51:24;102086.42;;;-1.10;100.00
19789;BME280;10054;59.332;18.244;2023-04-06T03:53:52;102086.43;;;-1.09;100.00
19789;BME280;10054;59.332;18.244;2023-04-06T03:56:21;102087.30;;;-1.08;100.00
19789;BME280;10054;59.332;18.244;2023-04-06T03:58:50;102088.59;;;-1.08;100.00
19789;BME280;10054;59.332;18.244;2023-04-06T04:01:21;102091.61;;;-1.09;100.00
19789;BME280;10054;59.332;18.244;2023-04-06T04:03:50;102090.34;;;-1.06;100.00
19789;BME280;10054;59.332;18.244;2023-04-06T04:06:19;102091.70;;;-0.98;100.00
19789;BME280;10054;59.332;18.244;2023-04-06T04:08:48;102088.78;;;-0.85;100.00
19789;BME280;10054;59.332;18.244;2023-04-06T04:11:17;102090.50;;;-0.87;100.00
19789;BME280;10054;59.332;18.244;2023-04-06T04:13:48;102086.99;;;-0.94;100.00
19789;BME280;10054;59.332;18.244;2023-04-06T04:16:17;102081.77;;;-0.98;100.00
19789;BME280;10054;59.332;18.244;2023-04-06T04:18:46;102095.98;;;-1.03;100.00
19789;BME280;10054;59.332;18.244;2023-04-06T04:21:16;102095.52;;;-1.06;100.00
19789;BME280;10054;59.332;18.244;2023-04-06T04:23:45;102090.31;;;-1.09;100.00
19789;BME280;10054;59.332;18.244;2023-04-06T04:26:13;102094.62;;;-1.11;100.00
19789;BME280;10054;59.332;18.244;2023-04-06T04:28:44;102095.03;;;-1.13;100.00
19789;BME280;10054;59.332;18.244;2023-04-06T04:31:14;102099.34;;;-1.13;100.00
19789;BME280;10054;59.332;18.244;2023-04-06T04:33:44;102102.81;;;-1.11;100.00
19789;BME280;10054;59.332;18.244;2023-04-06T04:36:15;102095.94;;;-1.08;100.00
19789;BME280;10054;59.332;18.244;2023-04-06T04:38:44;102099.44;;;-1.03;100.00
19789;BME280;10054;59.332;18.244;2023-04-06T04:41:13;102096.88;;;-1.00;100.00
19789;BME280;10054;59.332;18.244;2023-04-06T04:43:43;102101.64;;;-0.97;100.00
19789;BME280;10054;59.332;18.244;2023-04-06T04:46:13;102105.98;;;-0.93;100.00
19789;BME280;10054;59.332;18.244;2023-04-06T04:48:43;102102.58;;;-0.88;100.00
19789;BME280;10054;59.332;18.244;2023-04-06T04:51:12;102101.80;;;-0.78;100.00
19789;BME280;10054;59.332;18.244;2023-04-06T04:53:43;102105.73;;;-0.67;100.00
19789;BME280;10054;59.332;18.244;2023-04-06T04:56:13;102111.41;;;-0.60;100.00
19789;BME280;10054;59.332;18.244;2023-04-06T04:58:44;102115.34;;;-0.52;100.00
19789;BME280;10054;59.332;18.244;2023-04-06T05:01:13;102112.36;;;-0.47;100.00
19789;BME280;10054;59.332;18.244;2023-04-06T05:03:43;102113.26;;;-0.42;100.00
19789;BME280;10054;59.332;18.244;2023-04-06T05:06:13;102116.76;;;-0.36;100.00
19789;BME280;10054;59.332;18.244;2023-04-06T05:08:43;102115.49;;;-0.31;100.00
19789;BME280;10054;59.332;18.244;2023-04-06T05:11:12;102120.28;;;-0.26;100.00
19789;BME280;10054;59.332;18.244;2023-04-06T05:13:43;102117.72;;;-0.20;100.00
19789;BME280;10054;59.332;18.244;2023-04-06T05:16:16;102121.64;;;-0.14;100.00
19789;BME280;10054;59.332;18.244;2023-04-06T05:18:45;102120.38;;;-0.09;100.00
19789;BME280;10054;59.332;18.244;2023-04-06T05:21:14;102125.17;;;-0.01;100.00
19789;BME280;10054;59.332;18.244;2023-04-06T05:23:44;102129.92;;;0.06;100.00
19789;BME280;10054;59.332;18.244;2023-04-06T05:26:13;102123.48;;;0.13;100.00
19789;BME280;10054;59.332;18.244;2023-04-06T05:28:43;102121.34;;;0.19;100.00
19789;BME280;10054;59.332;18.244;2023-04-06T05:31:12;102119.69;;;0.38;100.00
19789;BME280;10054;59.332;18.244;2023-04-06T05:33:44;102115.83;;;0.51;100.00
19789;BME280;10054;59.332;18.244;2023-04-06T05:36:14;102113.27;;;0.60;100.00
19789;BME280;10054;59.332;18.244;2023-04-06T05:38:44;102118.91;;;0.66;100.00
19789;BME280;10054;59.332;18.244;2023-04-06T05:41:18;102124.54;;;0.72;100.00
19789;BME280;10054;59.332;18.244;2023-04-06T05:43:47;102127.11;;;0.75;100.00
19789;BME280;10054;59.332;18.244;2023-04-06T05:46:17;102126.69;;;0.80;100.00
19789;BME280;10054;59.332;18.244;2023-04-06T05:48:46;102127.99;;;0.83;100.00
19789;BME280;10054;59.332;18.244;2023-04-06T05:51:15;102133.19;;;0.86;100.00
19789;BME280;10054;59.332;18.244;2023-04-06T05:53:46;102131.03;;;0.90;100.00
19789;BME280;10054;59.332;18.244;2023-04-06T05:56:15;102133.64;;;0.96;100.00
19789;BME280;10054;59.332;18.244;2023-04-06T05:58:45;102138.84;;;0.99;100.00
19789;BME280;10054;59.332;18.244;2023-04-06T06:01:15;102140.15;;;1.05;100.00
19789;BME280;10054;59.332;18.244;2023-04-06T06:03:45;102139.29;;;1.09;100.00
19789;BME280;10054;59.332;18.244;2023-04-06T06:06:16;102140.16;;;1.14;100.00
19789;BME280;10054;59.332;18.244;2023-04-06T06:08:46;102144.06;;;1.22;100.00
19789;BME280;10054;59.332;18.244;2023-04-06T06:11:16;102141.90;;;1.30;100.00
19789;BME280;10054;59.332;18.244;2023-04-06T06:13:45;102143.62;;;1.41;100.00
19789;BME280;10054;59.332;18.244;2023-04-06T06:16:14;102135.79;;;1.51;100.00
19789;BME280;10054;59.332;18.244;2023-04-06T06:18:45;102140.11;;;1.66;100.00
19789;BME280;10054;59.332;18.244;2023-04-06T06:21:14;102136.62;;;1.78;100.00
19789;BME280;10054;59.332;18.244;2023-04-06T06:23:44;102137.05;;;1.82;100.00
19789;BME280;10054;59.332;18.244;2023-04-06T06:26:16;102141.80;;;1.88;100.00
19789;BME280;10054;59.332;18.244;2023-04-06T06:28:45;102143.52;;;1.95;100.00
19789;BME280;10054;59.332;18.244;2023-04-06T06:31:14;102148.70;;;2.03;100.00
19789;BME280;10054;59.332;18.244;2023-04-06T06:33:44;102150.86;;;2.08;100.00
19789;BME280;10054;59.332;18.244;2023-04-06T06:36:13;102142.52;;;2.25;100.00
19789;BME280;10054;59.332;18.244;2023-04-06T06:38:42;102151.16;;;2.35;100.00
19789;BME280;10054;59.332;18.244;2023-04-06T06:41:12;102145.94;;;2.40;100.00
19789;BME280;10054;59.332;18.244;2023-04-06T06:43:41;102150.66;;;2.52;100.00
19789;BME280;10054;59.332;18.244;2023-04-06T06:46:12;102151.89;;;2.64;100.00
19789;BME280;10054;59.332;18.244;2023-04-06T06:48:40;102146.63;;;2.74;100.00
19789;BME280;10054;59.332;18.244;2023-04-06T06:51:10;102150.51;;;2.80;100.00
19789;BME280;10054;59.332;18.244;2023-04-06T06:53:40;102154.38;;;2.87;100.00
19789;BME280;10054;59.332;18.244;2023-04-06T06:56:10;102151.22;;;3.00;100.00
19789;BME280;10054;59.332;18.244;2023-04-06T06:58:40;102152.91;;;3.07;100.00
19789;BME280;10054;59.332;18.244;2023-04-06T07:01:09;102156.28;;;3.21;100.00
19789;BME280;10054;59.332;18.244;2023-04-06T07:03:38;102154.37;;;3.43;100.00
19789;BME280;10054;59.332;18.244;2023-04-06T07:06:07;102158.53;;;3.64;100.00
19789;BME280;10054;59.332;18.244;2023-04-06T07:08:36;102159.84;;;3.64;100.00
19789;BME280;10054;59.332;18.244;2023-04-06T07:11:04;102160.25;;;3.67;100.00
19789;BME280;10054;59.332;18.244;2023-04-06T07:13:33;102164.20;;;3.62;100.00
19789;BME280;10054;59.332;18.244;2023-04-06T07:16:03;102162.88;;;3.65;100.00
19789;BME280;10054;59.332;18.244;2023-04-06T07:18:31;102165.00;;;3.70;100.00
19789;BME280;10054;59.332;18.244;2023-04-06T07:21:00;102159.73;;;3.72;100.00
19789;BME280;10054;59.332;18.244;2023-04-06T07:23:29;102162.46;;;3.62;100.00
19789;BME280;10054;59.332;18.244;2023-04-06T07:25:58;102162.02;;;3.63;100.00
19789;BME280;10054;59.332;18.244;2023-04-06T07:28:27;102173.63;;;3.74;100.00
19789;BME280;10054;59.332;18.244;2023-04-06T07:30:56;102165.27;;;3.83;100.00
19789;BME280;10054;59.332;18.244;2023-04-06T07:33:26;102168.69;;;3.90;100.00
19789;BME280;10054;59.332;18.244;2023-04-06T07:35:58;102170.44;;;3.89;100.00
19789;BME280;10054;59.332;18.244;2023-04-06T07:38:27;102170.42;;;3.91;100.00
19789;BME280;10054;59.332;18.244;2023-04-06T07:40:56;102176.48;;;3.94;100.00
19789;BME280;10054;59.332;18.244;2023-04-06T07:43:25;102171.02;;;4.16;100.00
19789;BME280;10054;59.332;18.244;2023-04-06T07:45:54;102173.36;;;4.40;100.00
19789;BME280;10054;59.332;18.244;2023-04-06T07:48:24;102165.83;;;4.47;100.00
19789;BME280;10054;59.332;18.244;2023-04-06T07:51:00;102164.31;;;4.64;100.00
19789;BME280;10054;59.332;18.244;2023-04-06T07:53:25;102173.73;;;4.76;100.00
19789;BME280;10054;59.332;18.244;2023-04-06T07:55:54;102165.70;;;4.89;100.00
19789;BME280;10054;59.332;18.244;2023-04-06T07:58:23;102165.11;;;5.01;97.93
19789;BME280;10054;59.332;18.244;2023-04-06T08:00:52;102165.52;;;5.02;91.47
19789;BME280;10054;59.332;18.244;2023-04-06T08:03:21;102167.67;;;5.04;93.02
19789;BME280;10054;59.332;18.244;2023-04-06T08:05:53;102169.09;;;4.96;91.42
19789;BME280;10054;59.332;18.244;2023-04-06T08:08:22;102172.73;;;4.86;89.87
19789;BME280;10054;59.332;18.244;2023-04-06T08:10:51;102175.59;;;4.68;90.26
19789;BME280;10054;59.332;18.244;2023-04-06T08:13:20;102174.95;;;4.49;88.10
19789;BME280;10054;59.332;18.244;2023-04-06T08:15:49;102177.34;;;4.34;90.47
19789;BME280;10054;59.332;18.244;2023-04-06T08:18:17;102182.30;;;4.19;89.27
19789;BME280;10054;59.332;18.244;2023-04-06T08:20:46;102183.70;;;4.12;91.36
19789;BME280;10054;59.332;18.244;2023-04-06T08:23:16;102186.44;;;4.00;88.90
19789;BME280;10054;59.332;18.244;2023-04-06T08:25:45;102186.92;;;3.94;87.83
19789;BME280;10054;59.332;18.244;2023-04-06T08:28:15;102186.51;;;3.92;91.06
19789;BME280;10054;59.332;18.244;2023-04-06T08:30:44;102184.75;;;3.94;91.16
19789;BME280;10054;59.332;18.244;2023-04-06T08:33:12;102186.92;;;3.94;92.06
19789;BME280;10054;59.332;18.244;2023-04-06T08:35:45;102189.50;;;3.98;92.38
19789;BME280;10054;59.332;18.244;2023-04-06T08:38:13;102192.85;;;4.10;92.87
19789;BME280;10054;59.332;18.244;2023-04-06T08:40:42;102185.81;;;4.17;91.62
19789;BME280;10054;59.332;18.244;2023-04-06T08:43:13;102192.27;;;4.24;91.36
19789;BME280;10054;59.332;18.244;2023-04-06T08:45:42;102184.03;;;4.20;88.65
19789;BME280;10054;59.332;18.244;2023-04-06T08:48:12;102181.00;;;4.19;88.43
19789;BME280;10054;59.332;18.244;2023-04-06T08:50:41;102184.53;;;4.15;86.85
19789;BME280;10054;59.332;18.244;2023-04-06T08:53:11;102188.51;;;4.09;84.34
19789;BME280;10054;59.332;18.244;2023-04-06T08:55:41;102187.64;;;4.09;86.37
19789;BME280;10054;59.332;18.244;2023-04-06T08:58:11;102185.42;;;4.13;87.44
19789;BME280;10054;59.332;18.244;2023-04-06T09:00:40;102186.27;;;4.15;85.79
19789;BME280;10054;59.332;18.244;2023-04-06T09:03:09;102187.16;;;4.14;83.66
19789;BME280;10054;59.332;18.244;2023-04-06T09:05:40;102188.45;;;4.15;84.91
19789;BME280;10054;59.332;18.244;2023-04-06T09:08:08;102186.30;;;4.12;84.59
19789;BME280;10054;59.332;18.244;2023-04-06T09:10:44;102182.74;;;4.19;86.13
19789;BME280;10054;59.332;18.244;2023-04-06T09:13:09;102183.12;;;4.24;86.11
19789;BME280;10054;59.332;18.244;2023-04-06T09:15:38;102178.97;;;4.44;86.00
19789;BME280;10054;59.332;18.244;2023-04-06T09:18:07;102176.02;;;4.69;88.58
19789;BME280;10054;59.332;18.244;2023-04-06T09:20:36;102174.88;;;4.88;87.38
19789;BME280;10054;59.332;18.244;2023-04-06T09:23:04;102168.31;;;4.89;86.43
19789;BME280;10054;59.332;18.244;2023-04-06T09:25:33;102164.44;;;4.86;85.94
19789;BME280;10054;59.332;18.244;2023-04-06T09:28:05;102173.99;;;4.89;86.33
19789;BME280;10054;59.332;18.244;2023-04-06T09:30:35;102163.55;;;4.87;85.63
19789;BME280;10054;59.332;18.244;2023-04-06T09:33:04;102168.38;;;4.85;85.43
19789;BME280;10054;59.332;18.244;2023-04-06T09:35:34;102168.41;;;4.83;85.05
19789;BME280;10054;59.332;18.244;2023-04-06T09:38:10;102170.22;;;4.78;83.86
19789;BME280;10054;59.332;18.244;2023-04-06T09:40:34;102171.63;;;4.71;82.86
19789;BME280;10054;59.332;18.244;2023-04-06T09:43:03;102163.00;;;4.64;83.02
19789;BME280;10054;59.332;18.244;2023-04-06T09:45:35;102163.95;;;4.58;83.26
19789;BME280;10054;59.332;18.244;2023-04-06T09:48:04;102169.56;;;4.62;84.70
19789;BME280;10054;59.332;18.244;2023-04-06T09:50:33;102169.52;;;4.66;83.92
19789;BME280;10054;59.332;18.244;2023-04-06T09:53:03;102167.28;;;4.70;84.66
19789;BME280;10054;59.332;18.244;2023-04-06T09:55:40;102165.45;;;4.76;85.27
19789;BME280;10054;59.332;18.244;2023-04-06T09:58:19;102164.52;;;4.80;84.37
19789;BME280;10054;59.332;18.244;2023-04-06T10:01:08;102169.19;;;4.90;85.79
19789;BME280;10054;59.332;18.244;2023-04-06T10:06:14;102158.28;;;4.90;84.70
19789;BME280;10054;59.332;18.244;2023-04-06T10:08:45;102167.77;;;4.98;84.63
19789;BME280;10054;59.332;18.244;2023-04-06T10:11:15;102167.62;;;5.07;85.88
19789;BME280;10054;59.332;18.244;2023-04-06T10:13:46;102169.66;;;5.16;86.02
19789;BME280;10054;59.332;18.244;2023-04-06T10:16:18;102165.07;;;5.29;86.37
19789;BME280;10054;59.332;18.244;2023-04-06T10:18:53;102166.80;;;5.30;83.09
19789;BME280;10054;59.332;18.244;2023-04-06T10:21:23;102169.98;;;5.22;83.12
19789;BME280;10054;59.332;18.244;2023-04-06T10:23:58;102167.53;;;5.13;79.14
19789;BME280;10054;59.332;18.244;2023-04-06T10:26:24;102174.56;;;5.09;82.96
19789;BME280;10054;59.332;18.244;2023-04-06T10:28:54;102171.13;;;5.06;84.09
19789;BME280;10054;59.332;18.244;2023-04-06T10:31:26;102177.27;;;5.03;81.45
19789;BME280;10054;59.332;18.244;2023-04-06T10:34:00;102176.16;;;4.89;82.41
19789;BME280;10054;59.332;18.244;2023-04-06T10:36:34;102167.01;;;4.89;83.73
19789;BME280;10054;59.332;18.244;2023-04-06T10:39:04;102167.20;;;4.76;81.87
19789;BME280;10054;59.332;18.244;2023-04-06T10:41:44;102172.47;;;4.73;84.08
19789;BME280;10054;59.332;18.244;2023-04-06T10:44:23;102168.99;;;4.72;85.00
19789;BME280;10054;59.332;18.244;2023-04-06T10:46:59;102177.66;;;4.76;86.09
19789;BME280;10054;59.332;18.244;2023-04-06T10:49:28;102169.94;;;4.67;83.84
19789;BME280;10054;59.332;18.244;2023-04-06T10:51:57;102167.87;;;4.58;84.73
19789;BME280;10054;59.332;18.244;2023-04-06T10:54:27;102169.59;;;4.59;86.33
19789;BME280;10054;59.332;18.244;2023-04-06T10:56:56;102166.48;;;4.65;85.91
19789;BME280;10054;59.332;18.244;2023-04-06T10:59:25;102168.63;;;4.67;86.78
19789;BME280;10054;59.332;18.244;2023-04-06T11:01:55;102165.11;;;4.69;87.06
19789;BME280;10054;59.332;18.244;2023-04-06T11:04:25;102163.36;;;4.70;88.42
19789;BME280;10054;59.332;18.244;2023-04-06T11:06:53;102164.67;;;4.70;88.37
19789;BME280;10054;59.332;18.244;2023-04-06T11:09:26;102157.38;;;4.61;87.10
19789;BME280;10054;59.332;18.244;2023-04-06T11:11:55;102151.70;;;4.62;88.79
19789;BME280;10054;59.332;18.244;2023-04-06T11:14:24;102151.68;;;4.63;87.22
19789;BME280;10054;59.332;18.244;2023-04-06T11:16:54;102154.78;;;4.60;86.88
19789;BME280;10054;59.332;18.244;2023-04-06T11:19:22;102153.91;;;4.59;87.65
19789;BME280;10054;59.332;18.244;2023-04-06T11:21:51;102156.27;;;4.46;85.25
19789;BME280;10054;59.332;18.244;2023-04-06T11:24:24;102152.34;;;4.46;87.28
19789;BME280;10054;59.332;18.244;2023-04-06T11:26:57;102156.64;;;4.50;86.70
19789;BME280;10054;59.332;18.244;2023-04-06T11:29:29;102147.94;;;4.50;87.23
19789;BME280;10054;59.332;18.244;2023-04-06T11:32:03;102153.09;;;4.56;88.87
19789;BME280;10054;59.332;18.244;2023-04-06T11:34:35;102156.99;;;4.57;86.88
19789;BME280;10054;59.332;18.244;2023-04-06T11:37:10;102150.48;;;4.56;87.50
19789;BME280;10054;59.332;18.244;2023-04-06T11:39:54;102149.61;;;4.55;87.25
19789;BME280;10054;59.332;18.244;2023-04-06T11:42:26;102151.77;;;4.57;85.56
19789;BME280;10054;59.332;18.244;2023-04-06T11:45:00;102150.90;;;4.57;86.58
19789;BME280;10054;59.332;18.244;2023-04-06T11:47:33;102152.63;;;4.58;86.91
19789;BME280;10054;59.332;18.244;2023-04-06T11:50:10;102154.41;;;4.54;86.11
19789;BME280;10054;59.332;18.244;2023-04-06T11:52:40;102153.47;;;4.60;87.32
19789;BME280;10054;59.332;18.244;2023-04-06T11:55:14;102153.88;;;4.62;85.50
19789;BME280;10054;59.332;18.244;2023-04-06T11:57:43;102155.18;;;4.62;85.35
19789;BME280;10054;59.332;18.244;2023-04-06T12:00:13;102150.02;;;4.58;85.53
19789;BME280;10054;59.332;18.244;2023-04-06T12:02:47;102150.86;;;4.60;85.58
19789;BME280;10054;59.332;18.244;2023-04-06T12:05:17;102144.73;;;4.62;85.71
19789;BME280;10054;59.332;18.244;2023-04-06T12:07:45;102142.89;;;4.69;84.30
19789;BME280;10054;59.332;18.244;2023-04-06T12:10:14;102141.59;;;4.69;83.94
19789;BME280;10054;59.332;18.244;2023-04-06T12:12:43;102148.06;;;4.74;83.34
19789;BME280;10054;59.332;18.244;2023-04-06T12:15:12;102144.54;;;4.76;85.14
19789;BME280;10054;59.332;18.244;2023-04-06T12:17:41;102140.59;;;4.78;85.95
19789;BME280;10054;59.332;18.244;2023-04-06T12:20:10;102137.89;;;4.84;85.82
19789;BME280;10054;59.332;18.244;2023-04-06T12:22:39;102142.25;;;4.83;82.81
19789;BME280;10054;59.332;18.244;2023-04-06T12:25:08;102134.30;;;4.91;85.65
19789;BME280;10054;59.332;18.244;2023-04-06T12:27:37;102138.91;;;5.04;85.45
19789;BME280;10054;59.332;18.244;2023-04-06T12:30:07;102141.05;;;5.06;84.59
19789;BME280;10054;59.332;18.244;2023-04-06T12:32:36;102136.09;;;5.16;82.79
19789;BME280;10054;59.332;18.244;2023-04-06T12:35:06;102127.92;;;5.09;83.57
19789;BME280;10054;59.332;18.244;2023-04-06T12:37:36;102129.53;;;5.17;81.80
19789;BME280;10054;59.332;18.244;2023-04-06T12:40:06;102125.59;;;5.19;81.98
19789;BME280;10054;59.332;18.244;2023-04-06T12:42:35;102125.06;;;5.22;81.59
19789;BME280;10054;59.332;18.244;2023-04-06T12:45:04;102118.37;;;5.06;80.29
19789;BME280;10054;59.332;18.244;2023-04-06T12:47:33;102127.63;;;5.00;79.45
19789;BME280;10054;59.332;18.244;2023-04-06T12:50:04;102129.40;;;4.98;80.79
19789;BME280;10054;59.332;18.244;2023-04-06T12:52:34;102123.73;;;4.99;81.76
19789;BME280;10054;59.332;18.244;2023-04-06T12:55:04;102121.44;;;5.06;81.69
19789;BME280;10054;59.332;18.244;2023-04-06T12:57:33;102115.69;;;5.11;81.20
19789;BME280;10054;59.332;18.244;2023-04-06T13:00:02;102118.49;;;5.24;81.30
19789;BME280;10054;59.332;18.244;2023-04-06T13:02:31;102119.62;;;5.35;80.08